.
WxDataArchive / Data Records for 2008-04-24
2008-04-23 April 2008 2008-04-25

Data Records for Thursday, 24 April 2008

Time	Temp	Chill	HIndex	Humid	Dewpt	 Wind 	HiWind	WindDir	Rain 	Barom 
-----	----	-----	------	-----	-----	------	------	-------	-----	----- 
00:00	57.2	57.2	57.2	60	43.4	2	5	112	0.00	30.166 
00:05	57.2	57.2	57.2	60	43.4	2	5	90	0.00	30.167 
00:10	57.0	57.0	57.0	60	43.3	2	4	90	0.00	30.169 
00:15	56.7	56.7	56.7	59	42.5	1	5	112	0.00	30.170 
00:20	56.7	56.7	56.7	58	42.1	2	4	90	0.00	30.170 
00:25	56.6	56.6	56.6	58	42.0	1	3	90	0.00	30.171 
00:30	56.5	56.5	56.5	58	41.9	1	3	90	0.00	30.171 
00:35	56.3	56.3	56.3	57	41.3	2	5	112	0.00	30.171 
00:40	56.2	56.2	56.2	57	41.2	1	3	90	0.00	30.171 
00:45	56.0	56.0	56.0	57	41.0	2	5	90	0.00	30.169 
00:50	56.0	56.0	56.0	57	41.0	2	4	90	0.00	30.169 
00:55	55.9	55.9	55.9	57	40.9	1	3	90	0.00	30.169 
01:00	55.7	55.7	55.7	56	40.2	2	4	90	0.00	30.170 
01:05	55.6	55.6	55.6	56	40.2	2	4	135	0.00	30.170 
01:10	55.4	55.4	55.4	56	40.0	1	3	90	0.00	30.169 
01:15	55.1	55.1	55.1	56	39.7	1	3	90	0.00	30.169 
01:20	55.0	55.0	55.0	56	39.6	1	3	90	0.00	30.168 
01:25	54.8	54.8	54.8	55	38.9	1	3	112	0.00	30.169 
01:30	54.7	54.7	54.7	55	38.9	1	3	112	0.00	30.169 
01:35	54.7	54.7	54.7	55	38.9	1	3	112	0.00	30.169 
01:40	54.5	54.5	54.5	54	38.2	1	4	90	0.00	30.169 
01:45	54.4	54.4	54.4	54	38.1	1	4	90	0.00	30.171 
01:50	54.4	54.4	54.4	54	38.1	1	2	90	0.00	30.171 
01:55	54.1	54.1	54.1	54	37.8	1	3	90	0.00	30.169 
02:00	54.1	54.1	54.1	55	38.3	1	3	90	0.00	30.169 
02:05	53.8	53.8	53.8	55	38.0	1	3	90	0.00	30.171 
02:10	53.8	53.8	53.8	54	37.5	1	4	135	0.00	30.171 
02:15	53.6	53.6	53.6	55	37.8	1	3	112	0.00	30.170 
02:20	53.5	53.5	53.5	55	37.7	1	3	112	0.00	30.170 
02:25	53.3	53.3	53.3	55	37.5	1	5	90	0.00	30.171 
02:30	53.2	53.2	53.2	55	37.5	2	5	112	0.00	30.172 
02:35	53.1	53.1	53.1	56	37.8	1	4	112	0.00	30.172 
02:40	52.9	52.9	52.9	56	37.6	1	4	90	0.00	30.173 
02:45	52.8	52.8	52.8	57	38.0	1	5	112	0.00	30.175 
02:50	52.6	52.6	52.6	58	38.2	1	3	112	0.00	30.174 
02:55	52.3	52.3	52.3	58	38.0	0	2	112	0.00	30.185 
03:00	52.0	52.0	52.0	59	38.1	1	2	112	0.00	30.186 
03:05	51.9	51.9	51.9	60	38.5	1	3	112	0.00	30.185 
03:10	51.7	51.7	51.7	61	38.7	1	2	112	0.00	30.187 
03:15	51.6	51.6	51.6	61	38.6	1	2	112	0.00	30.186 
03:20	51.6	51.6	51.6	60	38.2	1	4	90	0.00	30.187 
03:25	51.4	51.4	51.4	60	38.0	1	4	90	0.00	30.188 
03:30	51.3	51.3	51.3	60	37.9	1	5	90	0.00	30.188 
03:35	51.1	51.1	51.1	60	37.7	1	4	112	0.00	30.188 
03:40	51.0	51.0	51.0	60	37.6	1	4	112	0.00	30.188 
03:45	51.0	51.0	51.0	60	37.6	1	4	112	0.00	30.187 
03:50	50.7	50.7	50.7	60	37.3	1	4	112	0.00	30.188 
03:55	50.5	50.5	50.5	60	37.1	1	3	90	0.00	30.185 
04:00	50.4	50.4	50.4	61	37.5	1	4	112	0.00	30.185 
04:05	50.2	50.2	50.2	61	37.3	1	3	112	0.00	30.188 
04:10	50.1	50.1	50.1	61	37.2	1	2	112	0.00	30.190 
04:15	49.9	49.9	49.9	62	37.4	1	3	112	0.00	30.191 
04:20	49.8	49.8	49.8	62	37.3	1	4	112	0.00	30.192 
04:25	49.6	49.6	49.6	62	37.1	0	2	112	0.00	30.193 
04:30	49.5	49.5	49.5	62	37.0	0	2	112	0.00	30.198 
04:35	49.4	49.4	49.4	62	36.9	0	2	112	0.00	30.199 
04:40	49.4	49.4	49.4	61	36.5	0	1	112	0.00	30.201 
04:45	49.2	49.2	49.2	61	36.3	0	1	112	0.00	30.205 
04:50	49.1	49.1	49.1	62	36.6	0	1	112	0.00	30.206 
04:55	49.1	49.1	49.1	61	36.2	0	2	112	0.00	30.205 
05:00	48.9	48.9	48.9	62	36.5	0	1	112	0.00	30.202 
05:05	48.9	48.9	48.9	62	36.5	0	2	112	0.00	30.208 
05:10	48.9	48.9	48.9	61	36.0	1	2	112	0.00	30.206 
05:15	49.1	49.1	49.1	60	35.8	1	3	112	0.00	30.205 
05:20	49.2	49.2	49.2	60	35.9	1	2	112	0.00	30.209 
05:25	49.2	49.2	49.2	59	35.5	1	3	112	0.00	30.210 
05:30	49.4	49.4	49.4	58	35.2	0	2	112	0.00	30.211 
05:35	49.4	49.4	49.4	58	35.2	1	3	112	0.00	30.212 
05:40	49.4	49.4	49.4	58	35.2	1	2	112	0.00	30.211 
05:45	49.2	49.2	49.2	58	35.1	1	3	112	0.00	30.209 
05:50	49.2	49.2	49.2	58	35.1	1	4	112	0.00	30.208 
05:55	49.2	49.2	49.2	58	35.1	1	4	90	0.00	30.206 
06:00	49.4	49.4	49.4	57	34.8	1	3	90	0.00	30.208 
06:05	49.4	49.4	49.4	57	34.8	1	3	135	0.00	30.211 
06:10	49.4	49.4	49.4	57	34.8	1	5	135	0.00	30.213 
06:15	49.4	49.4	49.4	57	34.8	1	3	112	0.00	30.214 
06:20	49.4	49.4	49.4	57	34.8	1	3	112	0.00	30.213 
06:25	49.4	49.4	49.4	57	34.8	1	3	112	0.00	30.214 
06:30	49.5	49.5	49.5	56	34.5	1	3	112	0.00	30.211 
06:35	49.8	49.8	49.8	55	34.3	1	4	112	0.00	30.210 
06:40	50.1	50.1	50.1	55	34.6	1	3	112	0.00	30.209 
06:45	50.4	50.4	50.4	55	34.8	1	3	112	0.00	30.209 
06:50	50.8	50.8	50.8	54	34.8	2	5	112	0.00	30.210 
06:55	51.1	51.1	51.1	53	34.6	2	4	90	0.00	30.211 
07:00	51.6	51.6	51.6	52	34.6	3	6	112	0.00	30.211 
07:05	52.0	52.0	52.0	51	34.4	3	6	90	0.00	30.212 
07:10	52.5	52.5	52.5	51	34.9	2	5	112	0.00	30.213 
07:15	52.8	52.8	52.8	50	34.7	3	6	112	0.00	30.212 
07:20	53.2	53.2	53.2	49	34.5	3	5	90	0.00	30.213 
07:25	53.8	53.8	53.8	46	33.5	3	7	90	0.00	30.213 
07:30	54.4	54.4	54.4	45	33.5	3	9	90	0.00	30.214 
07:35	54.8	54.8	54.8	44	33.3	3	7	90	0.00	30.212 
07:40	55.3	55.3	55.3	44	33.8	3	7	112	0.00	30.212 
07:45	55.7	55.7	55.7	40	31.8	4	12	112	0.00	30.211 
07:50	56.0	56.0	56.0	40	32.0	5	10	112	0.00	30.210 
07:55	56.3	56.3	56.3	40	32.3	4	7	112	0.00	30.208 
08:00	56.7	56.7	56.7	40	32.7	4	10	112	0.00	30.206 
08:05	57.2	57.2	57.2	39	32.5	5	13	112	0.00	30.208 
08:10	57.8	57.8	57.8	36	31.0	4	9	112	0.00	30.206 
08:15	58.1	58.1	58.1	35	30.6	5	13	112	0.00	30.203 
08:20	58.4	58.4	58.4	35	30.9	5	8	112	0.00	30.199 
08:25	58.6	58.6	58.6	33	29.6	5	12	112	0.00	30.199 
08:30	59.2	59.2	59.2	34	30.8	4	7	112	0.00	30.196 
08:35	59.6	59.6	59.6	34	31.2	5	11	112	0.00	30.193 
08:40	59.9	59.9	59.9	32	30.0	7	15	112	0.00	30.191 
08:45	60.4	60.4	60.4	30	28.8	6	13	112	0.00	30.190 
08:50	60.9	60.9	60.9	31	30.1	6	10	112	0.00	30.191 
08:55	61.2	61.2	61.2	30	29.5	7	15	112	0.00	30.191 
09:00	61.5	61.5	61.5	30	29.8	6	11	112	0.00	30.189 
09:05	61.6	61.6	61.6	31	30.7	5	11	112	0.00	30.191 
09:10	62.4	62.4	62.4	29	29.7	5	15	112	0.00	30.190 
09:15	62.9	62.9	62.9	28	29.3	6	13	112	0.00	30.190 
09:20	63.2	63.2	63.2	28	29.6	8	18	90	0.00	30.190 
09:25	63.4	63.4	63.4	26	27.9	7	15	112	0.00	30.191 
09:30	63.7	63.7	63.7	26	28.2	6	13	112	0.00	30.188 
09:35	64.3	64.3	64.3	26	28.7	5	9	112	0.00	30.188 
09:40	64.8	64.8	64.8	26	29.1	5	12	90	0.00	30.186 
09:45	65.0	65.0	65.0	25	28.3	6	13	112	0.00	30.186 
09:50	65.3	65.3	65.3	25	28.6	6	14	112	0.00	30.186 
09:55	65.8	65.8	65.8	26	30.0	5	12	112	0.00	30.185 
10:00	66.0	66.0	66.0	24	28.2	7	17	112	0.00	30.185 
10:05	65.8	65.8	65.8	25	29.0	6	13	112	0.00	30.187 
10:10	66.1	66.1	66.1	23	27.2	6	14	112	0.00	30.183 
10:15	66.4	66.4	66.4	24	28.5	6	14	112	0.00	30.179 
10:20	66.3	66.3	66.3	23	27.4	9	16	112	0.00	30.179 
10:25	66.1	66.1	66.1	23	27.2	8	15	112	0.00	30.176 
10:30	66.4	66.4	66.4	26	30.5	5	11	112	0.00	30.175 
10:35	67.1	67.1	67.1	25	30.1	5	9	112	0.00	30.175 
10:40	67.3	67.3	67.3	25	30.3	4	11	112	0.00	30.174 
10:45	66.9	66.9	66.9	24	28.9	6	13	112	0.00	30.176 
10:50	66.9	66.9	66.9	25	29.9	6	11	112	0.00	30.178 
10:55	67.1	67.1	67.1	24	29.1	6	12	112	0.00	30.175 
11:00	66.8	66.8	66.8	23	27.8	8	18	112	0.00	30.174 
11:05	66.9	66.9	66.9	25	29.9	7	16	112	0.00	30.176 
11:10	67.3	67.3	67.3	24	29.3	5	12	112	0.00	30.172 
11:15	67.4	67.4	67.4	25	30.4	6	12	112	0.00	30.168 
11:20	67.6	67.6	67.6	26	31.5	6	12	112	0.00	30.164 
11:25	67.6	67.6	67.6	25	30.5	7	12	112	0.00	30.163 
11:30	67.6	67.6	67.6	26	31.5	6	12	112	0.00	30.161 
11:35	68.3	68.3	68.3	25	31.1	8	13	112	0.00	30.159 
11:40	68.8	68.8	68.8	27	33.5	6	16	90	0.00	30.155 
11:45	68.8	68.8	68.8	25	31.5	5	13	112	0.00	30.146 
11:50	69.6	69.6	69.6	25	32.2	4	9	112	0.00	30.142 
11:55	69.4	69.4	69.4	24	31.0	6	13	112	0.00	30.142 
12:00	68.8	68.8	68.8	25	31.5	5	11	112	0.00	30.142 
12:05	67.9	67.9	67.9	22	27.7	7	15	112	0.00	30.144 
12:10	67.4	67.4	67.4	26	31.3	5	11	112	0.00	30.144 
12:15	67.9	67.9	67.9	25	30.8	6	11	112	0.00	30.142 
12:20	68.8	68.8	68.8	25	31.5	6	12	112	0.00	30.138 
12:25	69.1	69.1	69.1	24	30.8	6	10	112	0.00	30.136 
12:30	69.4	69.4	69.4	25	32.0	6	12	112	0.00	30.129 
12:35	69.6	69.6	69.6	26	33.2	6	13	112	0.00	30.128 
12:40	70.1	70.1	70.1	25	32.6	5	11	112	0.00	30.123 
12:45	70.4	70.4	70.4	24	31.9	5	11	112	0.00	30.115 
12:50	70.8	70.8	70.8	26	34.2	6	11	112	0.00	30.113 
12:55	70.8	70.8	70.8	25	33.2	5	11	112	0.00	30.111 
13:00	70.6	70.6	70.6	25	33.1	5	11	112	0.00	30.110 
13:05	70.3	70.3	70.3	24	31.8	5	10	112	0.00	30.107 
13:10	70.6	70.6	70.6	25	33.1	5	11	90	0.00	30.100 
13:15	70.8	70.8	70.8	25	33.2	5	10	112	0.00	30.101 
13:20	70.8	70.8	70.8	25	33.2	4	9	112	0.00	30.099 
13:25	71.1	71.1	71.1	24	32.5	6	11	112	0.00	30.096 
13:30	71.5	71.5	71.5	28	36.7	6	11	112	0.00	30.092 
13:35	71.8	71.8	71.8	25	34.1	7	15	112	0.00	30.088 
13:40	72.3	72.3	72.3	26	35.5	5	11	112	0.00	30.083 
13:45	72.5	72.5	72.5	24	33.6	5	10	112	0.00	30.079 
13:50	72.5	72.5	72.5	25	34.7	5	14	90	0.00	30.079 
13:55	72.3	72.3	72.3	26	35.5	5	11	112	0.00	30.077 
14:00	72.0	72.0	72.0	26	35.2	6	12	112	0.00	30.072 
14:05	72.3	72.3	72.3	26	35.5	5	12	90	0.00	30.069 
14:10	72.7	72.7	72.7	27	36.8	4	10	90	0.00	30.068 
14:15	72.8	72.8	72.8	26	35.9	5	10	112	0.00	30.065 
14:20	72.8	72.8	72.8	26	35.9	4	8	112	0.00	30.063 
14:25	73.3	73.3	73.3	26	36.3	4	7	90	0.00	30.055 
14:30	73.3	73.3	73.3	26	36.3	4	9	112	0.00	30.054 
14:35	73.0	73.0	73.0	26	36.1	5	9	112	0.00	30.051 
14:40	73.2	73.2	73.2	27	37.2	4	10	112	0.00	30.048 
14:45	73.3	73.3	73.3	26	36.3	4	12	112	0.00	30.046 
14:50	73.2	73.2	73.2	27	37.2	5	10	90	0.00	30.043 
14:55	73.2	73.2	73.2	27	37.2	5	10	112	0.00	30.038 
15:00	73.2	73.2	73.2	26	36.2	5	9	112	0.00	30.033 
15:05	73.2	73.2	73.2	27	37.2	5	11	112	0.00	30.034 
15:10	73.0	73.0	73.0	28	38.0	4	11	112	0.00	30.032 
15:15	73.0	73.0	73.0	27	37.0	5	10	112	0.00	30.031 
15:20	72.8	72.8	72.8	28	37.8	5	9	112	0.00	30.028 
15:25	72.8	72.8	72.8	28	37.8	3	7	90	0.00	30.025 
15:30	72.7	72.7	72.7	28	37.7	5	10	112	0.00	30.021 
15:35	72.5	72.5	72.5	27	36.6	6	11	112	0.00	30.019 
15:40	72.5	72.5	72.5	28	37.5	5	10	112	0.00	30.019 
15:45	72.3	72.3	72.3	28	37.4	4	7	112	0.00	30.018 
15:50	72.3	72.3	72.3	28	37.4	4	10	90	0.00	30.017 
15:55	72.1	72.1	72.1	27	36.3	4	9	112	0.00	30.015 
16:00	72.1	72.1	72.1	28	37.2	4	12	112	0.00	30.011 
16:05	72.1	72.1	72.1	28	37.2	4	9	112	0.00	30.011 
16:10	72.0	72.0	72.0	27	36.2	4	11	112	0.00	30.007 
16:15	72.0	72.0	72.0	30	38.9	4	10	112	0.00	30.005 
16:20	71.8	71.8	71.8	28	36.9	4	9	112	0.00	30.006 
16:25	71.8	71.8	71.8	28	36.9	5	11	112	0.00	30.004 
16:30	71.8	71.8	71.8	29	37.8	4	10	90	0.00	30.002 
16:35	71.8	71.8	71.8	29	37.8	4	10	112	0.00	30.000 
16:40	72.0	72.0	72.0	30	38.9	3	7	112	0.00	29.999 
16:45	72.0	72.0	72.0	30	38.9	3	6	112	0.00	29.997 
16:50	72.0	72.0	72.0	30	38.9	5	10	112	0.00	29.995 
16:55	71.8	71.8	71.8	30	38.7	4	10	112	0.00	29.995 
17:00	71.8	71.8	71.8	30	38.7	5	11	112	0.00	29.991 
17:05	72.0	72.0	72.0	31	39.7	4	7	112	0.00	29.990 
17:10	72.0	72.0	72.0	29	38.0	5	11	112	0.00	29.989 
17:15	72.0	72.0	72.0	31	39.7	5	10	90	0.00	29.989 
17:20	71.8	71.8	71.8	28	36.9	6	12	112	0.00	29.989 
17:25	71.6	71.6	71.6	30	38.5	4	7	112	0.00	29.989 
17:30	71.5	71.5	71.5	31	39.3	4	10	112	0.00	29.987 
17:35	71.5	71.5	71.5	31	39.3	3	7	90	0.00	29.985 
17:40	71.1	71.1	71.1	31	38.9	5	9	112	0.00	29.986 
17:45	70.9	70.9	70.9	31	38.7	4	10	112	0.00	29.981 
17:50	70.8	70.8	70.8	32	39.5	4	11	112	0.00	29.979 
17:55	70.6	70.6	70.6	34	40.9	4	9	112	0.00	29.979 
18:00	70.3	70.3	70.3	33	39.8	3	7	90	0.00	29.977 
18:05	70.3	70.3	70.3	32	39.0	5	9	112	0.00	29.973 
18:10	70.1	70.1	70.1	32	38.9	4	10	112	0.00	29.975 
18:15	69.9	69.9	69.9	33	39.5	3	7	112	0.00	29.973 
18:20	69.8	69.8	69.8	34	40.2	2	5	90	0.00	29.972 
18:25	69.6	69.6	69.6	34	40.0	3	5	112	0.00	29.971 
18:30	69.4	69.4	69.4	35	40.6	3	5	112	0.00	29.973 
18:35	69.3	69.3	69.3	35	40.5	3	11	112	0.00	29.972 
18:40	69.1	69.1	69.1	35	40.3	4	9	112	0.00	29.971 
18:45	69.1	69.1	69.1	34	39.5	3	7	112	0.00	29.970 
18:50	68.9	68.9	68.9	35	40.1	4	7	90	0.00	29.966 
18:55	68.8	68.8	68.8	35	40.0	3	6	112	0.00	29.966 
19:00	68.6	68.6	68.6	36	40.6	4	7	112	0.00	29.964 
19:05	68.4	68.4	68.4	35	39.7	4	10	90	0.00	29.958 
19:10	68.3	68.3	68.3	35	39.6	3	7	112	0.00	29.961 
19:15	68.1	68.1	68.1	36	40.1	3	6	90	0.00	29.962 
19:20	67.8	67.8	67.8	37	40.6	4	10	112	0.00	29.960 
19:25	67.3	67.3	67.3	39	41.5	4	10	112	0.00	29.958 
19:30	66.8	66.8	66.8	41	42.3	4	10	112	0.00	29.964 
19:35	66.1	66.1	66.1	42	42.3	4	9	112	0.00	29.965 
19:40	65.6	65.6	65.6	43	42.5	3	7	112	0.00	29.965 
19:45	65.2	65.2	65.2	44	42.7	3	7	112	0.00	29.966 
19:50	64.8	64.8	64.8	44	42.4	4	11	112	0.00	29.965 
19:55	64.5	64.5	64.5	44	42.1	4	9	112	0.00	29.963 
20:00	64.3	64.3	64.3	45	42.5	3	11	112	0.00	29.963 
20:05	64.0	64.0	64.0	45	42.2	3	10	90	0.00	29.959 
20:10	63.9	63.9	63.9	45	42.1	3	6	112	0.00	29.955 
20:15	63.5	63.5	63.5	46	42.3	3	6	112	0.00	29.957 
20:20	63.4	63.4	63.4	45	41.7	2	6	112	0.00	29.960 
20:25	63.2	63.2	63.2	45	41.5	3	6	90	0.00	29.960 
20:30	62.9	62.9	62.9	44	40.6	3	6	90	0.00	29.961 
20:35	62.7	62.7	62.7	44	40.5	4	8	90	0.00	29.962 
20:40	62.6	62.6	62.6	44	40.4	4	7	112	0.00	29.960 
20:45	62.3	62.3	62.3	45	40.7	3	7	112	0.00	29.957 
20:50	62.1	62.1	62.1	45	40.5	3	7	90	0.00	29.957 
20:55	61.8	61.8	61.8	45	40.2	4	6	112	0.00	29.956 
21:00	61.6	61.6	61.6	46	40.6	3	7	90	0.00	29.955 
21:05	61.3	61.3	61.3	46	40.3	3	6	112	0.00	29.952 
21:10	61.2	61.2	61.2	46	40.3	3	5	112	0.00	29.954 
21:15	61.0	61.0	61.0	46	40.1	3	5	90	0.00	29.954 
21:20	60.9	60.9	60.9	47	40.5	2	7	112	0.00	29.953 
21:25	60.7	60.7	60.7	47	40.3	3	7	90	0.00	29.952 
21:30	60.5	60.5	60.5	47	40.2	4	7	90	0.00	29.951 
21:35	60.4	60.4	60.4	48	40.6	2	4	90	0.00	29.953 
21:40	60.2	60.2	60.2	48	40.4	2	4	112	0.00	29.952 
21:45	60.1	60.1	60.1	49	40.9	3	5	90	0.00	29.949 
21:50	59.9	59.9	59.9	49	40.7	3	7	90	0.00	29.947 
21:55	59.8	59.8	59.8	49	40.6	2	5	112	0.00	29.949 
22:00	59.5	59.5	59.5	50	40.8	2	4	90	0.00	29.945 
22:05	59.3	59.3	59.3	50	40.7	2	4	112	0.00	29.943 
22:10	59.3	59.3	59.3	50	40.7	3	5	90	0.00	29.941 
22:15	59.2	59.2	59.2	51	41.1	2	8	90	0.00	29.956 
22:20	59.6	59.6	59.6	52	42.0	3	12	270	0.00	29.985 
22:25	60.4	60.4	60.4	53	43.2	2	4	248	0.00	29.984 
22:30	60.2	60.2	60.2	64	48.0	1	4	248	0.02	29.983 
22:35	58.9	58.9	58.9	70	49.1	0	1	248	0.00	29.982 
22:40	58.0	58.0	58.0	73	49.4	0	0	---	0.01	29.979 
22:45	57.2	57.2	57.2	75	49.3	0	2	248	0.01	29.971 
22:50	56.7	56.7	56.7	78	49.9	0	0	---	0.01	29.970 
22:55	56.5	56.5	56.5	81	50.7	0	2	248	0.00	29.965 
23:00	56.2	56.2	56.2	84	51.4	0	1	248	0.01	29.962 
23:05	56.0	56.0	56.0	85	51.6	0	0	---	0.00	29.958 
23:10	56.0	56.0	56.0	87	52.2	0	0	---	0.00	29.972 
23:15	56.0	56.0	56.0	89	52.8	0	1	248	0.03	29.969 
23:20	55.9	55.9	55.9	90	53.0	0	1	248	0.01	29.967 
23:25	55.9	55.9	55.9	91	53.3	1	2	248	0.00	29.965 
23:30	56.2	56.2	56.2	92	53.9	0	1	248	0.01	29.958 
23:35	56.5	56.5	56.5	92	54.2	0	1	248	0.00	29.956 
23:40	56.9	56.9	56.9	93	54.9	0	1	248	0.01	29.952 
23:45	57.0	57.0	57.0	93	55.0	2	3	248	0.02	29.937 
23:50	57.3	57.3	57.3	93	55.3	2	3	68	0.00	29.932 
23:55	57.5	57.5	57.5	94	55.8	1	2	68	0.00	29.931 

CoCoRaHS
IN-AL-39
A2 Web Hosting
Creative Commons License
GoDaddy
Look for:

loaded 2017-12-12 07:25:42 • last modified 2010-11-18 10:43:29
Privacy PolicyDisclaimer
• wx.awcolley.com is powered by PmWiki v.2002016 •
• all content (unless otherwise noted) © 2017 A W Colley